Time;durP1;ratioP1;P1;durP2;ratioP2;P2;SDS_P1;SDS_P2;PMS_P1;PMS_P2;Temp;Humidity;BMP_temperature;BMP_pressure;BME280_temperature;BME280_humidity;BME280_pressure;Samples;Min_cycle;Max_cycle;Signal;HPM_P1;HPM_P2
2023/01/16 00:00:36;;;;;;;2.15;1.67;;;;;;;;;;5053199;28;20045;-91
2023/01/16 00:03:02;;;;;;;1.00;1.00;;;;;;;;;;5052930;28;20045;-90
2023/01/16 00:05:29;;;;;;;3.33;3.05;;;;;;;;;;5053170;28;20045;-90
2023/01/16 00:07:55;;;;;;;0.70;0.70;;;;;;;;;;5052802;28;20048;-90
2023/01/16 00:10:22;;;;;;;1.67;1.58;;;;;;;;;;5052954;28;20362;-90
2023/01/16 00:12:48;;;;;;;1.80;1.70;;;;;;;;;;5052710;28;20052;-90
2023/01/16 00:15:16;;;;;;;0.85;0.85;;;;;;;;;;5053243;28;20103;-90
2023/01/16 00:17:43;;;;;;;1.10;1.02;;;;;;;;;;5052785;28;20107;-90
2023/01/16 00:20:10;;;;;;;3.63;1.27;;;;;;;;;;5052682;28;20044;-90
2023/01/16 00:22:37;;;;;;;1.40;0.85;;;;;;;;;;5053088;28;20110;-90
2023/01/16 00:25:03;;;;;;;1.85;1.75;;;;;;;;;;5052833;28;20048;-90
2023/01/16 00:27:30;;;;;;;0.60;0.60;;;;;;;;;;5052360;28;20045;-90
2023/01/16 00:29:56;;;;;;;1.23;1.23;;;;;;;;;;5052777;28;20110;-90
2023/01/16 00:32:24;;;;;;;1.42;1.33;;;;;;;;;;5052884;28;20123;-90
2023/01/16 00:34:51;;;;;;;0.80;0.80;;;;;;;;;;5052777;28;20115;-89
2023/01/16 00:37:17;;;;;;;1.55;0.98;;;;;;;;;;5052529;28;20060;-90
2023/01/16 00:39:44;;;;;;;2.47;1.92;;;;;;;;;;5052787;28;20056;-90
2023/01/16 00:42:10;;;;;;;0.82;0.82;;;;;;;;;;5052704;28;20485;-90
2023/01/16 00:44:36;;;;;;;0.93;0.90;;;;;;;;;;5056542;28;20102;-90
2023/01/16 00:47:04;;;;;;;2.22;2.03;;;;;;;;;;5056218;28;20057;-89
2023/01/16 00:49:32;;;;;;;1.92;1.83;;;;;;;;;;5056514;28;20045;-90
2023/01/16 00:51:58;;;;;;;1.98;1.88;;;;;;;;;;5056455;28;20695;-90
2023/01/16 00:54:25;;;;;;;1.05;1.05;;;;;;;;;;5056441;28;20068;-90
2023/01/16 00:56:51;;;;;;;0.85;0.85;;;;;;;;;;5055818;28;20412;-90
2023/01/16 00:59:18;;;;;;;0.65;0.65;;;;;;;;;;5056461;28;20098;-91
2023/01/16 01:01:44;;;;;;;1.73;1.63;;;;;;;;;;5056065;28;20443;-91
2023/01/16 01:04:12;;;;;;;1.77;1.27;;;;;;;;;;5056000;28;20102;-90
2023/01/16 01:06:40;;;;;;;0.73;0.73;;;;;;;;;;5056041;28;20588;-90
2023/01/16 01:09:06;;;;;;;6.85;1.95;;;;;;;;;;5055869;28;20094;-91
2023/01/16 01:11:33;;;;;;;5.85;1.83;;;;;;;;;;5056267;28;20053;-91
2023/01/16 01:13:59;;;;;;;1.67;1.58;;;;;;;;;;5056105;28;20057;-91
2023/01/16 01:16:26;;;;;;;0.85;0.85;;;;;;;;;;5055878;28;20166;-91
2023/01/16 01:18:52;;;;;;;0.60;0.60;;;;;;;;;;5055907;28;20515;-90
2023/01/16 01:21:19;;;;;;;1.67;1.58;;;;;;;;;;5055547;28;20167;-90
2023/01/16 01:23:47;;;;;;;2.20;2.10;;;;;;;;;;5055889;28;20045;-90
2023/01/16 01:26:16;;;;;;;5.38;3.20;;;;;;;;;;5055313;28;20129;-90
2023/01/16 01:28:43;;;;;;;4.40;4.10;;;;;;;;;;5055319;28;20463;-90
2023/01/16 01:31:10;;;;;;;2.15;2.05;;;;;;;;;;5055777;28;20061;-89
2023/01/16 01:33:37;;;;;;;1.15;1.15;;;;;;;;;;5055665;28;20052;-91
2023/01/16 01:36:04;;;;;;;1.13;0.93;;;;;;;;;;5055196;28;20061;-90
2023/01/16 01:38:31;;;;;;;1.95;0.88;;;;;;;;;;5055237;28;20049;-90
2023/01/16 01:40:59;;;;;;;0.80;0.80;;;;;;;;;;5055572;28;20106;-91
2023/01/16 01:43:39;;;;;;;2.17;1.85;;;;;;;;;;5055287;28;20052;-91
2023/01/16 01:46:06;;;;;;;0.65;0.65;;;;;;;;;;5055564;28;20048;-91
2023/01/16 01:48:37;;;;;;;1.05;1.05;;;;;;;;;;5055471;28;20142;-90
2023/01/16 01:51:07;;;;;;;2.13;1.98;;;;;;;;;;5055449;28;20102;-91
2023/01/16 01:53:35;;;;;;;2.17;1.85;;;;;;;;;;5054538;28;20045;-90
2023/01/16 01:56:06;;;;;;;0.95;0.95;;;;;;;;;;5054794;28;20107;-90
2023/01/16 01:58:33;;;;;;;2.33;2.22;;;;;;;;;;5054975;28;20060;-90
2023/01/16 02:01:00;;;;;;;0.40;0.40;;;;;;;;;;5054792;28;20090;-90
2023/01/16 02:03:32;;;;;;;3.85;3.55;;;;;;;;;;5055056;28;20053;-90
2023/01/16 02:06:01;;;;;;;2.13;1.25;;;;;;;;;;5054858;28;20053;-90
2023/01/16 02:08:30;;;;;;;1.33;1.30;;;;;;;;;;5054933;28;20094;-89
2023/01/16 02:10:59;;;;;;;1.30;1.25;;;;;;;;;;5055105;28;20049;-90
2023/01/16 02:13:27;;;;;;;1.48;1.35;;;;;;;;;;5054574;28;20107;-90
2023/01/16 02:21:37;;;;;;;0.85;0.85;;;;;;;;;;5054681;28;20082;-90
2023/01/16 02:24:17;;;;;;;3.75;3.55;;;;;;;;;;5054195;28;20456;-90
2023/01/16 02:27:05;;;;;;;2.90;2.70;;;;;;;;;;5054290;28;20049;-90
2023/01/16 02:29:55;;;;;;;0.90;0.90;;;;;;;;;;5012739;28;20103;-89
2023/01/16 02:32:21;;;;;;;;;;;;;;;;;;5054675;28;20045;-90
2023/01/16 02:34:53;;;;;;;0.85;0.85;;;;;;;;;;5054353;28;20351;-89
2023/01/16 02:37:26;;;;;;;0.80;0.80;;;;;;;;;;5054406;28;20048;-90
2023/01/16 02:39:58;;;;;;;0.52;0.52;;;;;;;;;;5054129;28;20053;-90
2023/01/16 02:42:27;;;;;;;0.70;0.70;;;;;;;;;;5053947;28;20045;-89
2023/01/16 02:44:58;;;;;;;0.70;0.70;;;;;;;;;;5054248;28;20460;-89
2023/01/16 02:47:26;;;;;;;0.90;0.90;;;;;;;;;;5054061;28;20053;-89
2023/01/16 02:50:00;;;;;;;0.55;0.55;;;;;;;;;;5053968;28;20139;-90
2023/01/16 02:52:34;;;;;;;0.40;0.40;;;;;;;;;;5054167;28;20049;-90
2023/01/16 02:55:03;;;;;;;3.25;1.73;;;;;;;;;;5053731;28;20053;-90
2023/01/16 02:57:32;;;;;;;0.25;0.25;;;;;;;;;;5054195;28;20056;-91
2023/01/16 02:59:58;;;;;;;0.70;0.70;;;;;;;;;;5054087;28;20045;-90
2023/01/16 03:02:25;;;;;;;2.70;2.60;;;;;;;;;;5054005;28;20479;-90
2023/01/16 03:04:52;;;;;;;0.47;0.47;;;;;;;;;;5053352;28;20049;-90
2023/01/16 03:07:32;;;;;;;0.70;0.70;;;;;;;;;;5054932;28;20044;-90
2023/01/16 03:10:04;;;;;;;1.30;1.30;;;;;;;;;;5053635;28;20088;-91
2023/01/16 03:12:34;;;;;;;2.70;2.50;;;;;;;;;;5053890;28;20099;-90
2023/01/16 03:15:04;;;;;;;0.30;0.30;;;;;;;;;;5053461;28;20056;-90
2023/01/16 03:17:38;;;;;;;0.73;0.73;;;;;;;;;;5053744;28;20048;-90
2023/01/16 03:20:11;;;;;;;0.63;0.63;;;;;;;;;;5053696;28;20099;-90
2023/01/16 03:22:41;;;;;;;1.25;0.95;;;;;;;;;;5053638;28;20049;-90
2023/01/16 03:25:19;;;;;;;1.80;1.70;;;;;;;;;;5053536;28;20421;-90
2023/01/16 03:27:50;;;;;;;0.82;0.82;;;;;;;;;;5053651;28;20103;-90
2023/01/16 03:30:23;;;;;;;0.45;0.45;;;;;;;;;;5053191;28;20099;-90
2023/01/16 03:32:51;;;;;;;0.90;0.90;;;;;;;;;;5053520;28;20056;-90
2023/01/16 03:35:20;;;;;;;1.48;1.38;;;;;;;;;;5053152;28;20056;-90
2023/01/16 03:37:50;;;;;;;0.85;0.85;;;;;;;;;;5053484;28;20049;-90
2023/01/16 03:40:19;;;;;;;1.13;1.05;;;;;;;;;;5053378;28;20049;-90
2023/01/16 03:42:48;;;;;;;2.00;1.88;;;;;;;;;;5053271;28;20055;-90
2023/01/16 03:45:17;;;;;;;1.10;1.10;;;;;;;;;;5052952;28;20057;-90
2023/01/16 03:47:46;;;;;;;1.80;1.70;;;;;;;;;;5053247;28;20052;-90
2023/01/16 03:50:14;;;;;;;0.80;0.80;;;;;;;;;;5052894;28;20099;-90
2023/01/16 03:52:44;;;;;;;1.60;1.50;;;;;;;;;;5053147;28;20045;-90
2023/01/16 03:55:16;;;;;;;0.82;0.73;;;;;;;;;;5052856;28;20049;-90
2023/01/16 03:57:45;;;;;;;0.70;0.70;;;;;;;;;;5053234;28;20052;-90
2023/01/16 04:00:13;;;;;;;1.85;1.75;;;;;;;;;;5052756;28;20099;-89
2023/01/16 04:02:44;;;;;;;2.08;1.98;;;;;;;;;;5053022;28;20044;-89
2023/01/16 04:05:15;;;;;;;2.63;2.42;;;;;;;;;;5053210;28;20053;-89
2023/01/16 04:07:41;;;;;;;;;;;;;;;;;;5053421;28;20053;-90
2023/01/16 04:10:10;;;;;;;0.88;0.82;;;;;;;;;;5052604;28;20035;-90
2023/01/16 04:12:41;;;;;;;1.45;1.42;;;;;;;;;;5053024;28;20099;-90
2023/01/16 04:15:08;;;;;;;0.63;0.63;;;;;;;;;;5053172;28;20049;-90
2023/01/16 04:17:35;;;;;;;3.15;3.05;;;;;;;;;;5055636;28;20519;-90
2023/01/16 04:20:02;;;;;;;0.85;0.85;;;;;;;;;;5056914;28;20102;-89
2023/01/16 04:22:29;;;;;;;1.35;1.27;;;;;;;;;;5056694;28;20094;-89
2023/01/16 04:24:57;;;;;;;1.67;1.58;;;;;;;;;;5056429;28;20103;-89
2023/01/16 04:27:24;;;;;;;1.80;1.65;;;;;;;;;;5056482;28;20045;-90
2023/01/16 04:29:51;;;;;;;0.98;0.98;;;;;;;;;;5056506;28;20061;-89
2023/01/16 04:32:18;;;;;;;2.05;1.95;;;;;;;;;;5056568;28;20091;-90
2023/01/16 04:34:44;;;;;;;0.60;0.55;;;;;;;;;;5056366;28;20052;-90
2023/01/16 04:37:12;;;;;;;1.42;1.33;;;;;;;;;;5056736;28;20067;-89
2023/01/16 04:39:40;;;;;;;0.88;0.88;;;;;;;;;;5056552;28;20053;-90
2023/01/16 04:42:07;;;;;;;2.42;1.88;;;;;;;;;;5056228;28;20546;-89
2023/01/16 04:44:33;;;;;;;1.00;1.00;;;;;;;;;;5056217;28;20455;-89
2023/01/16 04:47:01;;;;;;;0.80;0.80;;;;;;;;;;5056484;28;20053;-89
2023/01/16 04:49:27;;;;;;;3.60;3.33;;;;;;;;;;5056593;28;20413;-89
2023/01/16 04:51:54;;;;;;;1.38;1.30;;;;;;;;;;5056325;28;20049;-90
2023/01/16 04:54:21;;;;;;;2.38;0.93;;;;;;;;;;5056216;28;20036;-89
2023/01/16 04:56:47;;;;;;;0.60;0.57;;;;;;;;;;5055938;28;20048;-89
2023/01/16 04:59:15;;;;;;;1.13;1.13;;;;;;;;;;5056329;28;20261;-89
2023/01/16 05:01:42;;;;;;;1.48;0.90;;;;;;;;;;5056090;28;20056;-90
2023/01/16 05:04:10;;;;;;;0.47;0.47;;;;;;;;;;5056725;28;20045;-90
2023/01/16 05:06:37;;;;;;;0.95;0.90;;;;;;;;;;5057218;28;20045;-90
2023/01/16 05:09:04;;;;;;;1.35;1.27;;;;;;;;;;5056731;28;20041;-90
2023/01/16 05:11:31;;;;;;;1.20;1.20;;;;;;;;;;5057514;28;20110;-89
2023/01/16 05:13:58;;;;;;;0.93;0.93;;;;;;;;;;5058425;28;20053;-90
2023/01/16 05:16:24;;;;;;;1.02;1.02;;;;;;;;;;5057520;28;20053;-89
2023/01/16 05:18:51;;;;;;;2.03;1.88;;;;;;;;;;5057460;28;20041;-90
2023/01/16 05:21:19;;;;;;;1.17;1.13;;;;;;;;;;5057467;28;20057;-89
2023/01/16 05:23:45;;;;;;;1.02;1.02;;;;;;;;;;5058047;28;20493;-89
2023/01/16 05:26:11;;;;;;;1.30;1.27;;;;;;;;;;5057313;28;20053;-89
2023/01/16 05:28:38;;;;;;;2.75;2.55;;;;;;;;;;5056053;28;20045;-88
2023/01/16 05:31:04;;;;;;;1.65;1.55;;;;;;;;;;5058086;28;20057;-89
2023/01/16 05:33:31;;;;;;;3.00;2.80;;;;;;;;;;5057030;28;20045;-89
2023/01/16 05:35:57;;;;;;;2.45;1.75;;;;;;;;;;5056585;28;20110;-89
2023/01/16 05:38:25;;;;;;;5.05;4.65;;;;;;;;;;5056608;28;20049;-89
2023/01/16 05:40:52;;;;;;;0.98;0.98;;;;;;;;;;5058050;28;20101;-89
2023/01/16 05:43:18;;;;;;;1.45;1.35;;;;;;;;;;5057150;28;20044;-89
2023/01/16 05:45:45;;;;;;;0.90;0.90;;;;;;;;;;5056901;28;20057;-89
2023/01/16 05:48:11;;;;;;;1.63;1.52;;;;;;;;;;5055256;28;20045;-89
2023/01/16 05:50:38;;;;;;;1.63;1.52;;;;;;;;;;5055086;28;20461;-89
2023/01/16 05:53:04;;;;;;;1.23;0.77;;;;;;;;;;5054902;28;20484;-89
2023/01/16 05:55:33;;;;;;;3.00;2.65;;;;;;;;;;5055261;28;20041;-89
2023/01/16 05:57:59;;;;;;;0.50;0.50;;;;;;;;;;5055399;28;20091;-89
2023/01/16 06:00:26;;;;;;;2.33;2.22;;;;;;;;;;5055052;28;20102;-89
2023/01/16 06:02:52;;;;;;;0.40;0.40;;;;;;;;;;5055290;28;20049;-89
2023/01/16 06:05:19;;;;;;;0.63;0.63;;;;;;;;;;5055277;28;20457;-89
2023/01/16 06:07:45;;;;;;;1.80;1.70;;;;;;;;;;5055228;28;20053;-89
2023/01/16 06:10:12;;;;;;;1.58;1.48;;;;;;;;;;5054811;28;20090;-89
2023/01/16 06:12:40;;;;;;;0.88;0.88;;;;;;;;;;5055044;28;20049;-89
2023/01/16 06:15:07;;;;;;;1.75;1.52;;;;;;;;;;5055003;28;20106;-89
2023/01/16 06:17:33;;;;;;;1.27;1.27;;;;;;;;;;5054804;28;20053;-89
2023/01/16 06:20:00;;;;;;;2.88;1.65;;;;;;;;;;5054941;28;20049;-90
2023/01/16 06:22:27;;;;;;;0.40;0.40;;;;;;;;;;5054557;28;20551;-89
2023/01/16 06:24:53;;;;;;;2.58;1.30;;;;;;;;;;5054892;28;20049;-90
2023/01/16 06:27:20;;;;;;;2.65;2.45;;;;;;;;;;5054305;28;20095;-90
2023/01/16 06:29:47;;;;;;;0.98;0.98;;;;;;;;;;5054392;28;20103;-90
2023/01/16 06:32:16;;;;;;;1.63;1.50;;;;;;;;;;5054512;28;20057;-90
2023/01/16 06:34:42;;;;;;;1.00;1.00;;;;;;;;;;5054442;28;20056;-90
2023/01/16 06:37:09;;;;;;;0.93;0.93;;;;;;;;;;5054679;28;20048;-89
2023/01/16 06:39:35;;;;;;;2.35;2.25;;;;;;;;;;5054523;28;20110;-90
2023/01/16 06:42:04;;;;;;;3.13;2.88;;;;;;;;;;5054255;28;20094;-89
2023/01/16 06:44:31;;;;;;;3.72;3.42;;;;;;;;;;5054579;28;20049;-89
2023/01/16 06:46:59;;;;;;;3.22;2.30;;;;;;;;;;5054424;28;20107;-90
2023/01/16 06:49:25;;;;;;;1.95;1.85;;;;;;;;;;5054263;28;20056;-90
2023/01/16 06:51:52;;;;;;;1.70;1.60;;;;;;;;;;5054482;28;20044;-90
2023/01/16 06:54:18;;;;;;;3.25;2.75;;;;;;;;;;5054374;28;20119;-90
2023/01/16 06:56:45;;;;;;;1.00;1.00;;;;;;;;;;5054209;28;20489;-90
2023/01/16 06:59:11;;;;;;;2.78;2.58;;;;;;;;;;5053943;28;20102;-91
2023/01/16 07:01:38;;;;;;;1.63;1.52;;;;;;;;;;5053971;28;20056;-91
2023/01/16 07:04:06;;;;;;;4.00;3.70;;;;;;;;;;5054280;28;20049;-91
2023/01/16 07:06:33;;;;;;;3.30;3.20;;;;;;;;;;5053847;28;20456;-91
2023/01/16 07:09:00;;;;;;;1.40;1.30;;;;;;;;;;5054716;28;20045;-92
2023/01/16 07:11:26;;;;;;;1.13;1.13;;;;;;;;;;5053931;28;20493;-91
2023/01/16 07:22:34;;;;;;;1.58;1.52;;;;;;;;;;5053684;28;20059;-91
2023/01/16 07:24:55;;;;;;;10.20;4.47;;;;;;;;;;5053992;28;20051;-92
2023/01/16 07:27:21;;;;;;;4.65;3.47;;;;;;;;;;5057279;28;20045;-92
2023/01/16 07:29:48;;;;;;;3.90;3.55;;;;;;;;;;5055706;28;20493;-91
2023/01/16 07:32:14;;;;;;;2.97;2.55;;;;;;;;;;5053913;28;20133;-92
2023/01/16 07:34:41;;;;;;;2.20;2.10;;;;;;;;;;5053645;28;20046;-92
2023/01/16 07:37:10;;;;;;;5.80;4.97;;;;;;;;;;5053404;28;20550;-92
2023/01/16 07:39:36;;;;;;;2.90;2.63;;;;;;;;;;5053325;28;20063;-92
2023/01/16 07:42:04;;;;;;;3.83;3.63;;;;;;;;;;5053493;28;20111;-91
2023/01/16 07:44:30;;;;;;;4.07;3.78;;;;;;;;;;5053496;28;20048;-93
2023/01/16 07:46:57;;;;;;;3.42;3.22;;;;;;;;;;5053126;28;20480;-92
2023/01/16 07:49:23;;;;;;;2.42;2.33;;;;;;;;;;5053294;28;20056;-92
2023/01/16 07:51:50;;;;;;;3.65;3.35;;;;;;;;;;5052420;28;20049;-92
2023/01/16 07:54:18;;;;;;;9.15;3.70;;;;;;;;;;5053260;28;20106;-92
2023/01/16 07:56:44;;;;;;;3.53;3.25;;;;;;;;;;5053307;28;20045;-92
2023/01/16 07:59:11;;;;;;;4.30;4.00;;;;;;;;;;5053597;28;20098;-91
2023/01/16 08:01:39;;;;;;;2.50;2.30;;;;;;;;;;5053054;28;20095;-92
2023/01/16 08:04:05;;;;;;;5.82;5.28;;;;;;;;;;5053252;28;20055;-92
2023/01/16 08:06:35;;;;;;;3.20;2.97;;;;;;;;;;5052940;28;20045;-92
2023/01/16 08:09:01;;;;;;;5.22;4.05;;;;;;;;;;5053196;28;20044;-92
2023/01/16 08:11:38;;;;;;;3.65;3.45;;;;;;;;;;5052880;28;20098;-92
2023/01/16 08:14:05;;;;;;;5.88;5.40;;;;;;;;;;5052959;28;20087;-92
2023/01/16 08:16:32;;;;;;;5.80;4.32;;;;;;;;;;5053206;28;20052;-92
2023/01/16 08:18:59;;;;;;;3.85;3.55;;;;;;;;;;5053085;28;20052;-92
2023/01/16 08:21:26;;;;;;;12.52;4.85;;;;;;;;;;5052972;28;20110;-92
2023/01/16 08:23:52;;;;;;;1.88;1.77;;;;;;;;;;5053188;28;20049;-92
2023/01/16 08:26:19;;;;;;;3.65;3.45;;;;;;;;;;5052884;28;20049;-92
2023/01/16 08:28:48;;;;;;;6.20;4.28;;;;;;;;;;5053132;28;20106;-92
2023/01/16 08:31:15;;;;;;;4.30;4.07;;;;;;;;;;5053311;28;20103;-93
2023/01/16 08:33:43;;;;;;;4.25;4.00;;;;;;;;;;5052672;28;20049;-92
2023/01/16 08:36:11;;;;;;;5.28;4.88;;;;;;;;;;5054265;28;20049;-92
2023/01/16 08:38:37;;;;;;;8.35;6.95;;;;;;;;;;5053407;28;20061;-94
2023/01/16 08:41:04;;;;;;;6.78;6.10;;;;;;;;;;5053335;28;20045;-95
2023/01/16 08:51:48;;;;;;;6.25;3.65;;;;;;;;;;5052830;28;20060;-95
2023/01/16 08:54:14;;;;;;;4.68;4.47;;;;;;;;;;5052730;28;20547;-94
2023/01/16 08:56:42;;;;;;;5.78;5.38;;;;;;;;;;5052788;28;20045;-94
2023/01/16 08:59:09;;;;;;;9.85;8.95;;;;;;;;;;5053182;28;20056;-94
2023/01/16 09:01:38;;;;;;;11.07;7.47;;;;;;;;;;5052710;28;20052;-95
2023/01/16 09:04:05;;;;;;;13.32;12.30;;;;;;;;;;5054488;28;20045;-95
2023/01/16 09:06:31;;;;;;;11.85;8.35;;;;;;;;;;5056230;28;20041;-94
2023/01/16 09:08:58;;;;;;;14.40;12.63;;;;;;;;;;5056232;28;20111;-94
2023/01/16 09:14:08;;;;;;;24.05;21.77;;;;;;;;;;5056385;28;20135;-94
2023/01/16 09:16:35;;;;;;;19.70;17.55;;;;;;;;;;5056347;28;20041;-94
2023/01/16 09:19:03;;;;;;;14.55;9.95;;;;;;;;;;5056176;28;20543;-95
2023/01/16 09:21:29;;;;;;;10.43;9.10;;;;;;;;;;5056010;28;20053;-94
2023/01/16 09:23:56;;;;;;;10.65;7.72;;;;;;;;;;5056261;28;20049;-94
2023/01/16 09:26:22;;;;;;;9.65;8.93;;;;;;;;;;5056141;28;20110;-93
2023/01/16 09:28:49;;;;;;;8.57;7.68;;;;;;;;;;5055719;28;20484;-94
2023/01/16 09:31:16;;;;;;;4.72;4.10;;;;;;;;;;5055628;28;20060;-94
2023/01/16 09:33:42;;;;;;;5.47;5.10;;;;;;;;;;5055936;28;20102;-93
2023/01/16 09:36:10;;;;;;;7.95;7.15;;;;;;;;;;5056104;28;20041;-93
2023/01/16 09:38:37;;;;;;;7.70;6.53;;;;;;;;;;5055908;28;20060;-93
2023/01/16 09:41:03;;;;;;;3.63;3.30;;;;;;;;;;5055862;28;20071;-94
2023/01/16 09:43:38;;;;;;;3.72;3.40;;;;;;;;;;5055701;28;20045;-94
2023/01/16 09:46:06;;;;;;;9.60;7.05;;;;;;;;;;5055467;28;20103;-93
2023/01/16 09:48:33;;;;;;;9.75;5.40;;;;;;;;;;5055804;28;20110;-94
2023/01/16 09:51:02;;;;;;;2.47;2.35;;;;;;;;;;5055670;28;20053;-94
2023/01/16 09:59:15;;;;;;;3.83;3.15;;;;;;;;;;5095970;28;20113;-93
2023/01/16 10:01:43;;;;;;;3.63;3.33;;;;;;;;;;5095632;28;20108;-92
2023/01/16 10:04:15;;;;;;;4.93;4.47;;;;;;;;;;5095449;28;20048;-94
2023/01/16 10:06:45;;;;;;;3.08;2.88;;;;;;;;;;5095608;28;20086;-94
2023/01/16 10:09:18;;;;;;;3.22;3.03;;;;;;;;;;5095571;28;20051;-94
2023/01/16 10:11:50;;;;;;;1.58;1.48;;;;;;;;;;5095475;28;20048;-93
2023/01/16 10:14:24;;;;;;;5.18;4.90;;;;;;;;;;5095056;28;20047;-93
2023/01/16 10:16:59;;;;;;;1.88;1.77;;;;;;;;;;5095002;28;20093;-93
2023/01/16 10:19:32;;;;;;;1.63;1.52;;;;;;;;;;5095526;28;20384;-93
2023/01/16 10:22:07;;;;;;;3.35;3.13;;;;;;;;;;5095258;28;20089;-93
2023/01/16 10:24:41;;;;;;;2.65;2.55;;;;;;;;;;5095020;28;20056;-94
2023/01/16 10:27:12;;;;;;;5.15;4.75;;;;;;;;;;5095143;28;20105;-93
2023/01/16 10:29:41;;;;;;;2.88;2.67;;;;;;;;;;5094615;28;20555;-93
2023/01/16 10:32:12;;;;;;;2.17;2.08;;;;;;;;;;5094844;28;20449;-92
2023/01/16 10:34:41;;;;;;;3.33;3.22;;;;;;;;;;5094789;28;20059;-92
2023/01/16 10:37:08;;;;;;;2.35;2.22;;;;;;;;;;5094818;28;20052;-93
2023/01/16 10:39:37;;;;;;;4.85;4.65;;;;;;;;;;5094568;28;20491;-93
2023/01/16 10:50:27;;;;;;;4.40;4.20;;;;;;;;;;5094391;28;20051;-90
2023/01/16 10:52:54;;;;;;;4.68;4.40;;;;;;;;;;5094094;28;20557;-90
2023/01/16 10:55:22;;;;;;;3.20;2.95;;;;;;;;;;5094407;28;20438;-90
2023/01/16 10:57:52;;;;;;;3.97;3.72;;;;;;;;;;5094115;28;20052;-91
2023/01/16 11:00:19;;;;;;;3.55;3.35;;;;;;;;;;5094452;28;20101;-90
2023/01/16 11:02:47;;;;;;;4.07;3.78;;;;;;;;;;5094100;28;20047;-90
2023/01/16 11:05:23;;;;;;;2.47;2.33;;;;;;;;;;5094409;28;20481;-89
2023/01/16 11:07:50;;;;;;;3.22;3.00;;;;;;;;;;5094372;28;20048;-90
2023/01/16 11:10:16;;;;;;;2.63;2.42;;;;;;;;;;5094277;28;20120;-90
2023/01/16 11:18:44;;;;;;;3.90;3.60;;;;;;;;;;5094172;28;20055;-90
2023/01/16 11:21:15;;;;;;;3.92;3.72;;;;;;;;;;5094156;28;20044;-90
2023/01/16 11:23:42;;;;;;;3.50;3.38;;;;;;;;;;5094106;28;20113;-90
2023/01/16 11:26:10;;;;;;;3.85;3.72;;;;;;;;;;5093394;28;20051;-90
2023/01/16 11:28:36;;;;;;;3.97;3.63;;;;;;;;;;5093976;28;20056;-90
2023/01/16 11:31:10;;;;;;;4.13;3.92;;;;;;;;;;5093596;28;20101;-91
2023/01/16 11:33:40;;;;;;;2.63;2.42;;;;;;;;;;5093649;28;20549;-90
2023/01/16 11:36:08;;;;;;;4.25;4.05;;;;;;;;;;5093333;28;20040;-90
2023/01/16 11:38:37;;;;;;;5.53;5.22;;;;;;;;;;5093510;28;20105;-90
2023/01/16 11:41:06;;;;;;;3.50;3.30;;;;;;;;;;5093482;28;20450;-90
2023/01/16 11:46:30;;;;;;;4.18;3.97;;;;;;;;;;5093431;28;20135;-90
2023/01/16 11:48:59;;;;;;;2.67;2.58;;;;;;;;;;5093597;28;20142;-89
2023/01/16 11:51:28;;;;;;;3.42;3.22;;;;;;;;;;5093623;28;20044;-90
2023/01/16 11:53:56;;;;;;;3.63;3.42;;;;;;;;;;5093463;28;20056;-90
2023/01/16 11:56:31;;;;;;;1.98;1.83;;;;;;;;;;5093619;28;20453;-90
2023/01/16 11:59:06;;;;;;;4.60;4.35;;;;;;;;;;5093320;28;20723;-90
2023/01/16 12:04:23;;;;;;;6.43;5.90;;;;;;;;;;5092594;28;20044;-91
2023/01/16 12:06:54;;;;;;;4.05;3.83;;;;;;;;;;5093166;28;20044;-90
2023/01/16 12:09:30;;;;;;;2.72;2.60;;;;;;;;;;5093593;28;20101;-92
2023/01/16 12:14:50;;;;;;;4.72;4.43;;;;;;;;;;5092543;28;20051;-92
2023/01/16 12:17:24;;;;;;;4.00;3.80;;;;;;;;;;5093428;28;20044;-91
2023/01/16 12:20:06;;;;;;;3.28;3.08;;;;;;;;;;5093438;28;20044;-91
2023/01/16 12:22:37;;;;;;;2.83;2.67;;;;;;;;;;5093367;28;20048;-90
2023/01/16 12:25:06;;;;;;;2.58;2.38;;;;;;;;;;5093007;28;20098;-91
2023/01/16 12:27:38;;;;;;;4.32;4.13;;;;;;;;;;5093050;28;20553;-91
2023/01/16 12:30:11;;;;;;;3.45;3.25;;;;;;;;;;5093517;28;20054;-91
2023/01/16 12:32:48;;;;;;;2.30;2.17;;;;;;;;;;5093293;28;20048;-90
2023/01/16 12:35:15;;;;;;;;;;;;;;;;;;5093650;28;20055;-91
2023/01/16 12:37:56;;;;;;;3.08;2.88;;;;;;;;;;5094431;28;19950;-90
2023/01/16 12:40:29;;;;;;;2.10;2.00;;;;;;;;;;5096992;28;20093;-91
2023/01/16 12:45:47;;;;;;;2.90;2.70;;;;;;;;;;5096941;28;20105;-92
2023/01/16 12:48:22;;;;;;;3.92;3.70;;;;;;;;;;5096767;28;20052;-92
2023/01/16 12:50:54;;;;;;;2.88;2.67;;;;;;;;;;5096970;28;20075;-92
2023/01/16 12:53:27;;;;;;;3.90;3.67;;;;;;;;;;5096983;28;20044;-91
2023/01/16 12:55:58;;;;;;;4.20;3.90;;;;;;;;;;5096840;28;20048;-91
2023/01/16 12:58:28;;;;;;;4.85;4.50;;;;;;;;;;5096745;28;20097;-92
2023/01/16 13:01:00;;;;;;;4.53;4.28;;;;;;;;;;5096718;28;20055;-91
2023/01/16 13:03:34;;;;;;;8.18;7.82;;;;;;;;;;5096462;28;20381;-91
2023/01/16 13:06:01;;;;;;;3.55;3.35;;;;;;;;;;5098887;28;20051;-91
2023/01/16 13:08:32;;;;;;;3.17;2.97;;;;;;;;;;5096344;28;20052;-91
2023/01/16 13:13:45;;;;;;;5.70;5.40;;;;;;;;;;5096661;28;20010;-91
2023/01/16 13:16:15;;;;;;;5.90;5.20;;;;;;;;;;5096532;28;20044;-92
2023/01/16 13:18:46;;;;;;;4.00;3.70;;;;;;;;;;5096449;28;20044;-91
2023/01/16 13:21:12;;;;;;;;;;;;;;;;;;5097368;28;20052;-92
2023/01/16 13:23:41;;;;;;;3.40;3.30;;;;;;;;;;5096363;28;19973;-90
2023/01/16 13:26:09;;;;;;;4.00;3.78;;;;;;;;;;5096188;28;20086;-92
2023/01/16 13:28:42;;;;;;;8.70;8.18;;;;;;;;;;5096310;28;20462;-91
2023/01/16 13:31:12;;;;;;;2.75;2.65;;;;;;;;;;5096206;28;20071;-91
2023/01/16 13:33:42;;;;;;;2.85;2.65;;;;;;;;;;5095945;28;20173;-90
2023/01/16 13:36:18;;;;;;;2.65;2.55;;;;;;;;;;5095861;28;20063;-90
2023/01/16 13:38:55;;;;;;;4.75;4.45;;;;;;;;;;5096146;28;20048;-91
2023/01/16 13:41:23;;;;;;;7.82;7.38;;;;;;;;;;5096083;28;20469;-91
2023/01/16 13:46:39;;;;;;;2.05;1.95;;;;;;;;;;5095775;28;20104;-90
2023/01/16 13:49:06;;;;;;;2.83;2.63;;;;;;;;;;5094820;28;20509;-90
2023/01/16 13:51:42;;;;;;;4.65;4.28;;;;;;;;;;5095820;28;20132;-91
2023/01/16 13:54:13;;;;;;;3.83;3.55;;;;;;;;;;5095806;28;20109;-92
2023/01/16 13:56:41;;;;;;;4.53;4.18;;;;;;;;;;5095336;28;20064;-89
2023/01/16 13:59:11;;;;;;;1.73;1.63;;;;;;;;;;5095771;28;20135;-90
2023/01/16 14:01:56;;;;;;;3.65;3.42;;;;;;;;;;5095604;28;20048;-89
2023/01/16 14:04:32;;;;;;;1.85;1.73;;;;;;;;;;5095329;28;20483;-90
2023/01/16 14:10:15;;;;;;;3.63;3.42;;;;;;;;;;5033218;28;20208;-90
2023/01/16 14:12:43;;;;;;;3.17;2.92;;;;;;;;;;5033010;28;20050;-90
2023/01/16 14:18:03;;;;;;;2.42;2.30;;;;;;;;;;5033032;28;20048;-89
2023/01/16 14:20:37;;;;;;;3.92;3.72;;;;;;;;;;5034260;28;20140;-89
2023/01/16 14:25:51;;;;;;;3.92;3.08;;;;;;;;;;5032192;28;20052;-89
2023/01/16 14:28:18;;;;;;;2.40;2.22;;;;;;;;;;5032664;28;20096;-89
2023/01/16 14:30:46;;;;;;;2.95;2.35;;;;;;;;;;5032619;28;20700;-89
2023/01/16 14:33:16;;;;;;;5.70;2.58;;;;;;;;;;5032753;28;20053;-89
2023/01/16 14:35:44;;;;;;;2.50;2.30;;;;;;;;;;5032298;28;20707;-89
2023/01/16 14:38:14;;;;;;;3.63;3.33;;;;;;;;;;5032394;28;20580;-90
2023/01/16 14:55:21;;;;;;;2.50;2.40;;;;;;;;;;5094353;28;20067;-89
2023/01/16 14:57:49;;;;;;;1.55;1.50;;;;;;;;;;5094353;28;20450;-89
2023/01/16 15:00:18;;;;;;;3.88;3.67;;;;;;;;;;5093740;28;20450;-89
2023/01/16 15:02:47;;;;;;;1.95;1.85;;;;;;;;;;5093452;28;20420;-89
2023/01/16 15:05:17;;;;;;;2.60;2.50;;;;;;;;;;5094179;28;20610;-89
2023/01/16 15:07:45;;;;;;;3.03;2.90;;;;;;;;;;5093979;28;20050;-91
2023/01/16 15:10:13;;;;;;;3.17;3.08;;;;;;;;;;5093797;28;20051;-90
2023/01/16 15:12:42;;;;;;;2.88;2.72;;;;;;;;;;5094168;28;20048;-90
2023/01/16 15:15:20;;;;;;;1.85;1.75;;;;;;;;;;5094325;28;20125;-90
2023/01/16 15:23:21;;;;;;;3.78;2.55;;;;;;;;;;5093552;28;20173;-90
2023/01/16 15:26:05;;;;;;;3.60;3.30;;;;;;;;;;5093482;28;20048;-90
2023/01/16 15:28:35;;;;;;;3.03;2.83;;;;;;;;;;5093145;28;20054;-91
2023/01/16 15:31:06;;;;;;;2.95;2.78;;;;;;;;;;5093449;28;20055;-90
2023/01/16 15:33:47;;;;;;;3.50;3.35;;;;;;;;;;5093494;28;20051;-90
2023/01/16 15:36:18;;;;;;;5.40;2.92;;;;;;;;;;5093378;28;20044;-90
2023/01/16 15:38:48;;;;;;;3.58;3.28;;;;;;;;;;5093336;28;20245;-90
2023/01/16 15:41:15;;;;;;;3.05;2.95;;;;;;;;;;5093553;28;20116;-90
2023/01/16 15:46:34;;;;;;;4.50;4.20;;;;;;;;;;5093335;28;20560;-91
2023/01/16 15:49:04;;;;;;;2.20;2.10;;;;;;;;;;5093022;28;20048;-90
2023/01/16 15:51:30;;;;;;;2.00;1.85;;;;;;;;;;5091746;28;20397;-88
2023/01/16 15:53:59;;;;;;;3.63;3.42;;;;;;;;;;5091170;28;20051;-90
2023/01/16 15:56:28;;;;;;;2.10;2.00;;;;;;;;;;5072971;28;20048;-89
2023/01/16 15:58:56;;;;;;;2.97;2.80;;;;;;;;;;5073166;28;20060;-90
2023/01/16 16:01:26;;;;;;;2.95;2.75;;;;;;;;;;5073161;28;20045;-90
2023/01/16 16:03:53;;;;;;;3.85;3.42;;;;;;;;;;5072897;28;20056;-90
2023/01/16 16:06:20;;;;;;;3.25;1.98;;;;;;;;;;5073115;28;20049;-90
2023/01/16 16:08:48;;;;;;;1.70;1.60;;;;;;;;;;5073090;28;20044;-90
2023/01/16 16:14:03;;;;;;;2.97;2.80;;;;;;;;;;5076708;28;20170;-90
2023/01/16 16:19:28;;;;;;;2.45;2.35;;;;;;;;;;5076820;28;20134;-89
2023/01/16 16:24:36;;;;;;;2.70;2.60;;;;;;;;;;5075664;28;20075;-90
2023/01/16 16:27:06;;;;;;;2.95;2.85;;;;;;;;;;5076446;28;20040;-89
2023/01/16 16:29:34;;;;;;;2.25;2.15;;;;;;;;;;5076646;28;20048;-90
2023/01/16 16:32:01;;;;;;;2.88;2.72;;;;;;;;;;5077183;28;20049;-93
2023/01/16 16:34:29;;;;;;;2.42;2.22;;;;;;;;;;5076893;28;20459;-90